Time;durP1;ratioP1;P1;durP2;ratioP2;P2;SDS_P1;SDS_P2;PMS_P1;PMS_P2;Temp;Humidity;BMP_temperature;BMP_pressure;BME280_temperature;BME280_humidity;BME280_pressure;Samples;Min_cycle;Max_cycle;Signal;HPM_P1;HPM_P2
2022/08/29 00:00:30;;;;;;;20.30;18.27;;;9.10;99.90;;;;;;4994062;28;20119;-74
2022/08/29 00:02:58;;;;;;;20.42;18.83;;;9.20;99.90;;;;;;5007897;28;20264;-75
2022/08/29 00:05:28;;;;;;;19.42;17.63;;;9.00;99.90;;;;;;5002552;28;20050;-74
2022/08/29 00:07:57;;;;;;;19.30;17.80;;;9.10;99.90;;;;;;4982392;28;20045;-74
2022/08/29 00:10:24;;;;;;;20.55;18.45;;;9.00;99.90;;;;;;4993380;28;20115;-75
2022/08/29 00:12:51;;;;;;;20.10;18.30;;;8.90;99.90;;;;;;5011942;28;20077;-74
2022/08/29 00:15:19;;;;;;;20.80;18.80;;;8.90;99.90;;;;;;5010762;28;20041;-72
2022/08/29 00:17:46;;;;;;;19.52;17.98;;;8.90;99.90;;;;;;5013083;28;20172;-73
2022/08/29 00:20:18;;;;;;;19.98;18.13;;;8.90;99.90;;;;;;5005410;28;20412;-73
2022/08/29 00:22:44;;;;;;;18.58;16.88;;;9.00;99.90;;;;;;4977791;28;20494;-72
2022/08/29 00:25:13;;;;;;;19.27;17.67;;;9.00;99.90;;;;;;4996548;28;20054;-73
2022/08/29 00:27:40;;;;;;;18.90;17.15;;;8.90;99.90;;;;;;5012370;28;20045;-75
2022/08/29 00:30:11;;;;;;;21.02;17.70;;;8.70;99.90;;;;;;4982919;28;20049;-75
2022/08/29 00:32:39;;;;;;;19.23;17.73;;;8.70;99.90;;;;;;5007030;28;20054;-74
2022/08/29 00:35:13;;;;;;;19.65;17.92;;;8.70;99.90;;;;;;5004389;28;20153;-72
2022/08/29 00:37:40;;;;;;;19.45;17.77;;;8.60;99.90;;;;;;5005647;28;20181;-74
2022/08/29 00:40:11;;;;;;;19.25;17.70;;;8.60;99.90;;;;;;5010109;28;20127;-74
2022/08/29 00:42:38;;;;;;;19.55;18.15;;;8.50;99.90;;;;;;4995062;28;20045;-75
2022/08/29 00:45:07;;;;;;;20.98;19.05;;;8.50;99.90;;;;;;5009726;28;20672;-73
2022/08/29 00:47:38;;;;;;;20.42;18.08;;;8.50;99.90;;;;;;4978443;28;20249;-75
2022/08/29 00:50:08;;;;;;;20.17;18.05;;;8.70;99.90;;;;;;5014690;28;20139;-74
2022/08/29 00:52:38;;;;;;;19.17;17.50;;;8.60;99.90;;;;;;5004104;28;20514;-75
2022/08/29 00:55:12;;;;;;;19.40;17.63;;;8.50;99.90;;;;;;4988770;28;20139;-72
2022/08/29 00:57:44;;;;;;;18.13;16.45;;;8.30;99.90;;;;;;5005224;28;20042;-74
2022/08/29 01:00:12;;;;;;;18.95;17.27;;;8.50;99.90;;;;;;4989058;28;20160;-72
2022/08/29 01:02:41;;;;;;;20.33;18.48;;;8.40;99.90;;;;;;4991506;28;20522;-72
2022/08/29 01:05:11;;;;;;;20.75;18.65;;;8.40;99.90;;;;;;5007972;28;20083;-73
2022/08/29 01:07:38;;;;;;;21.02;18.98;;;8.30;99.90;;;;;;5012548;28;20355;-72
2022/08/29 01:10:07;;;;;;;20.77;18.63;;;8.20;99.90;;;;;;5005481;28;20120;-73
2022/08/29 01:12:40;;;;;;;21.27;19.05;;;8.10;99.90;;;;;;4990469;28;20530;-72
2022/08/29 01:15:09;;;;;;;21.02;18.90;;;8.10;99.90;;;;;;4996957;28;20423;-73
2022/08/29 01:17:43;;;;;;;20.73;18.70;;;8.20;99.90;;;;;;4984558;28;20112;-72
2022/08/29 01:20:14;;;;;;;20.38;18.38;;;8.00;99.90;;;;;;5003646;28;20248;-73
2022/08/29 01:23:05;;;;;;;21.90;19.08;;;8.10;99.90;;;;;;4975051;28;20037;-73
2022/08/29 01:25:38;;;;;;;20.33;18.30;;;8.10;99.90;;;;;;4989727;28;20504;-73
2022/08/29 01:28:21;;;;;;;21.02;19.00;;;8.00;99.90;;;;;;5010033;28;20084;-73
2022/08/29 01:31:09;;;;;;;20.05;18.30;;;7.90;99.90;;;;;;5009327;28;20069;-73
2022/08/29 01:33:39;;;;;;;20.77;18.50;;;8.00;99.90;;;;;;4998422;28;20053;-73
2022/08/29 01:36:08;;;;;;;21.02;18.90;;;7.90;99.90;;;;;;4970240;28;20137;-74
2022/08/29 01:38:37;;;;;;;21.23;18.90;;;7.80;99.90;;;;;;5009441;28;20661;-73
2022/08/29 01:41:04;;;;;;;21.15;19.05;;;7.80;99.90;;;;;;5004653;28;20045;-73
2022/08/29 01:43:42;;;;;;;24.45;19.67;;;7.70;99.90;;;;;;4987426;28;20121;-73
2022/08/29 01:46:11;;;;;;;20.13;18.52;;;7.80;99.90;;;;;;4998792;28;20140;-72
2022/08/29 01:48:40;;;;;;;21.67;19.70;;;7.70;99.90;;;;;;5009958;28;20129;-73
2022/08/29 01:51:08;;;;;;;21.52;19.45;;;7.70;99.90;;;;;;5006211;28;20460;-73
2022/08/29 01:53:35;;;;;;;23.02;20.63;;;7.70;99.90;;;;;;5007700;28;20099;-73
2022/08/29 01:56:18;;;;;;;21.63;19.42;;;7.60;99.90;;;;;;5010434;28;20123;-75
2022/08/29 01:58:47;;;;;;;21.50;19.60;;;7.60;99.90;;;;;;4994210;28;20103;-75
2022/08/29 02:01:17;;;;;;;23.35;21.15;;;7.60;99.90;;;;;;4985267;28;20058;-72
2022/08/29 02:03:47;;;;;;;21.67;19.75;;;7.60;99.90;;;;;;5008444;28;20069;-73
2022/08/29 02:06:13;;;;;;;21.55;19.58;;;7.60;99.90;;;;;;5007103;28;20453;-75
2022/08/29 02:08:42;;;;;;;22.17;19.58;;;7.60;99.90;;;;;;5008748;28;20096;-74
2022/08/29 02:11:10;;;;;;;21.58;19.67;;;7.50;99.90;;;;;;5008805;28;20123;-74
2022/08/29 02:13:40;;;;;;;21.45;19.52;;;7.50;99.90;;;;;;5008274;28;20094;-74
2022/08/29 02:16:07;;;;;;;23.45;20.95;;;7.40;99.90;;;;;;5010661;28;20494;-73
2022/08/29 02:18:34;;;;;;;22.63;20.33;;;7.50;99.90;;;;;;4984257;28;20073;-74
2022/08/29 02:21:02;;;;;;;21.58;19.48;;;7.50;99.90;;;;;;5013800;28;20440;-75
2022/08/29 02:23:29;;;;;;;21.77;19.63;;;7.60;99.90;;;;;;5007710;28;20107;-72
2022/08/29 02:25:57;;;;;;;21.77;19.27;;;7.50;99.90;;;;;;4998335;28;20095;-72
2022/08/29 02:28:24;;;;;;;21.35;19.25;;;7.50;99.90;;;;;;4989411;28;20053;-73
2022/08/29 02:30:52;;;;;;;21.50;19.45;;;7.60;99.90;;;;;;5010140;28;20053;-73
2022/08/29 02:33:22;;;;;;;22.77;19.95;;;7.50;99.90;;;;;;4996911;28;20054;-73
2022/08/29 02:35:50;;;;;;;21.13;19.08;;;7.30;99.90;;;;;;5001232;28;20104;-72
2022/08/29 02:38:17;;;;;;;20.77;18.80;;;7.20;99.90;;;;;;5014135;28;20069;-73
2022/08/29 02:40:45;;;;;;;19.77;17.95;;;7.20;99.90;;;;;;5013368;28;20345;-72
2022/08/29 02:43:12;;;;;;;18.30;16.58;;;7.20;99.90;;;;;;5034075;28;20152;-72
2022/08/29 02:45:41;;;;;;;20.27;18.15;;;7.20;99.90;;;;;;5014210;28;20045;-72
2022/08/29 02:48:10;;;;;;;20.08;18.30;;;7.10;99.90;;;;;;5008109;28;20121;-72
2022/08/29 02:50:44;;;;;;;20.92;18.92;;;7.10;99.90;;;;;;4996986;28;20050;-72
2022/08/29 02:53:12;;;;;;;21.20;18.98;;;7.10;99.90;;;;;;5013209;28;20045;-72
2022/08/29 02:55:39;;;;;;;21.15;19.00;;;7.10;99.90;;;;;;4995913;28;20263;-74
2022/08/29 02:58:07;;;;;;;20.30;18.45;;;7.10;99.90;;;;;;4993288;28;20111;-74
2022/08/29 03:00:35;;;;;;;21.77;19.63;;;7.00;99.90;;;;;;4995383;28;20081;-74
2022/08/29 03:03:02;;;;;;;21.48;19.60;;;7.00;99.90;;;;;;5012672;28;20049;-74
2022/08/29 03:05:33;;;;;;;21.42;19.42;;;7.10;99.90;;;;;;4993783;28;20092;-74
2022/08/29 03:08:04;;;;;;;21.20;19.00;;;7.00;99.90;;;;;;5007509;23;20119;-71
2022/08/29 03:10:31;;;;;;;20.23;18.40;;;7.10;99.90;;;;;;5002822;28;20073;-71
2022/08/29 03:12:58;;;;;;;20.55;18.65;;;7.20;99.90;;;;;;4973600;28;20037;-71
2022/08/29 03:15:25;;;;;;;20.45;18.55;;;7.10;99.90;;;;;;4983569;28;20045;-71
2022/08/29 03:17:53;;;;;;;20.77;17.70;;;7.00;99.90;;;;;;4974745;28;20076;-71
2022/08/29 03:20:22;;;;;;;18.48;16.67;;;7.00;99.90;;;;;;4989484;28;20090;-71
2022/08/29 03:22:51;;;;;;;18.33;16.58;;;6.90;99.90;;;;;;4989133;28;20042;-71
2022/08/29 03:25:19;;;;;;;20.10;17.98;;;6.90;99.90;;;;;;4976088;28;20460;-71
2022/08/29 03:27:46;;;;;;;20.45;18.27;;;7.00;99.90;;;;;;4966777;28;20081;-71
2022/08/29 03:30:15;;;;;;;18.60;16.88;;;7.00;99.90;;;;;;4986892;28;20491;-71
2022/08/29 03:32:42;;;;;;;20.38;18.48;;;7.00;99.90;;;;;;4973249;28;20038;-71
2022/08/29 03:35:10;;;;;;;19.50;17.92;;;6.90;99.90;;;;;;4994684;28;20046;-70
2022/08/29 03:37:38;;;;;;;18.98;17.15;;;6.90;99.90;;;;;;4993226;28;20085;-71
2022/08/29 03:40:07;;;;;;;18.35;16.85;;;6.90;99.90;;;;;;4983147;28;20124;-71
2022/08/29 03:42:34;;;;;;;19.92;18.08;;;6.80;99.90;;;;;;4981526;28;20049;-71
2022/08/29 03:45:05;;;;;;;20.17;18.27;;;6.90;99.90;;;;;;4981917;28;20061;-71
2022/08/29 03:47:32;;;;;;;19.77;17.75;;;6.90;99.90;;;;;;4969085;28;20115;-70
2022/08/29 03:49:59;;;;;;;19.58;17.88;;;6.90;99.90;;;;;;4992854;28;20500;-71
2022/08/29 03:52:26;;;;;;;21.58;18.10;;;6.80;99.90;;;;;;4989920;28;20490;-71
2022/08/29 03:54:53;;;;;;;19.75;17.85;;;6.70;99.90;;;;;;4980726;28;20038;-71
2022/08/29 03:57:20;;;;;;;19.15;17.35;;;6.60;99.90;;;;;;4968908;28;20335;-71
2022/08/29 03:59:47;;;;;;;19.70;17.73;;;6.70;99.90;;;;;;4983997;28;20116;-71
2022/08/29 04:02:19;;;;;;;19.73;17.77;;;6.70;99.90;;;;;;4971817;28;20455;-71
2022/08/29 04:07:44;;;;;;;19.30;17.67;;;6.90;99.90;;;;;;4977869;28;20057;-71
2022/08/29 04:10:13;;;;;;;20.02;17.88;;;6.80;99.90;;;;;;4978350;28;20482;-71
2022/08/29 04:12:40;;;;;;;18.63;16.83;;;7.00;99.90;;;;;;4981839;28;20147;-70
2022/08/29 04:15:08;;;;;;;18.60;16.98;;;7.00;99.90;;;;;;4971262;28;20122;-71
2022/08/29 04:17:35;;;;;;;19.13;17.40;;;7.00;99.90;;;;;;4989138;28;20252;-71
2022/08/29 04:20:14;;;;;;;19.42;17.50;;;6.90;99.90;;;;;;4985849;28;20034;-70
2022/08/29 04:22:41;;;;;;;17.60;16.20;;;7.00;99.90;;;;;;4962537;28;20107;-71
2022/08/29 04:25:13;;;;;;;19.38;17.55;;;7.00;99.90;;;;;;4982795;28;20059;-70
2022/08/29 04:27:40;;;;;;;18.65;17.15;;;6.90;99.90;;;;;;4989195;28;20093;-70
2022/08/29 04:30:11;;;;;;;19.27;17.48;;;6.90;99.90;;;;;;4981772;28;20535;-71
2022/08/29 04:32:38;;;;;;;18.55;17.00;;;6.90;99.90;;;;;;4981468;28;20085;-71
2022/08/29 04:35:06;;;;;;;19.42;17.77;;;6.80;99.90;;;;;;4973493;28;20046;-70
2022/08/29 04:37:33;;;;;;;18.90;17.17;;;6.70;99.90;;;;;;4968472;28;20080;-71
2022/08/29 04:40:00;;;;;;;20.85;18.73;;;6.70;99.90;;;;;;4989803;28;20267;-71
2022/08/29 04:42:27;;;;;;;20.30;18.58;;;6.70;99.90;;;;;;4984733;28;20034;-69
2022/08/29 04:44:54;;;;;;;20.95;18.38;;;6.80;99.90;;;;;;4984582;28;20195;-71
2022/08/29 04:47:21;;;;;;;20.17;18.25;;;6.70;99.90;;;;;;4986044;28;20460;-71
2022/08/29 04:49:53;;;;;;;20.42;18.48;;;6.70;99.90;;;;;;4985824;28;20573;-71
2022/08/29 04:52:21;;;;;;;21.40;19.38;;;6.60;99.90;;;;;;4978062;28;20038;-71
2022/08/29 04:54:49;;;;;;;20.77;18.90;;;6.60;99.90;;;;;;4982397;28;20053;-70
2022/08/29 04:57:15;;;;;;;21.50;19.52;;;6.60;99.90;;;;;;4955894;28;20038;-71
2022/08/29 04:59:43;;;;;;;20.65;18.55;;;6.70;99.90;;;;;;4986951;28;20149;-70
2022/08/29 05:02:10;;;;;;;19.58;17.77;;;6.80;99.90;;;;;;4983472;28;20078;-70
2022/08/29 05:04:37;;;;;;;22.02;18.45;;;6.80;99.90;;;;;;4989625;28;20614;-71
2022/08/29 05:07:04;;;;;;;19.98;18.23;;;6.70;99.90;;;;;;4975026;28;20108;-70
2022/08/29 05:09:30;;;;;;;19.75;17.90;;;6.70;99.90;;;;;;4967485;28;20057;-70
2022/08/29 05:11:57;;;;;;;18.98;17.27;;;6.70;99.90;;;;;;4994943;28;20042;-70
2022/08/29 05:14:25;;;;;;;18.17;16.45;;;6.90;99.90;;;;;;4970233;28;20069;-71
2022/08/29 05:16:51;;;;;;;18.38;16.83;;;7.00;99.90;;;;;;4985648;28;20133;-71
2022/08/29 05:19:18;;;;;;;18.02;16.23;;;6.90;99.90;;;;;;4966898;28;20073;-71
2022/08/29 05:21:45;;;;;;;17.95;16.20;;;7.00;99.90;;;;;;4986976;28;20096;-70
2022/08/29 05:24:15;;;;;;;20.95;16.55;;;7.20;99.90;;;;;;4962383;28;20579;-72
2022/08/29 05:26:43;;;;;;;16.42;14.90;;;7.20;99.90;;;;;;4981428;28;20073;-70
2022/08/29 05:29:12;;;;;;;16.42;14.77;;;7.20;99.90;;;;;;4962728;28;20057;-70
2022/08/29 05:31:40;;;;;;;16.13;14.52;;;7.20;99.90;;;;;;4967344;28;20095;-71
2022/08/29 05:34:09;;;;;;;17.65;15.10;;;7.20;99.90;;;;;;4985214;28;20049;-70
2022/08/29 05:36:56;;;;;;;16.27;14.52;;;7.20;99.90;;;;;;4965677;28;20133;-70
2022/08/29 05:39:22;;;;;;;16.80;15.15;;;7.30;99.90;;;;;;4983835;28;21337;-71
2022/08/29 05:41:49;;;;;;;18.00;16.15;;;7.30;99.90;;;;;;4972954;28;20046;-70
2022/08/29 05:44:16;;;;;;;18.80;16.90;;;7.30;99.90;;;;;;4957957;28;20078;-71
2022/08/29 05:46:43;;;;;;;17.23;15.48;;;7.40;99.90;;;;;;4984309;28;20515;-71
2022/08/29 05:49:10;;;;;;;17.50;15.55;;;7.60;99.90;;;;;;4967364;28;20611;-70
2022/08/29 05:51:36;;;;;;;18.67;15.63;;;7.80;99.90;;;;;;4992659;28;20050;-70
2022/08/29 05:54:06;;;;;;;18.00;16.13;;;7.80;99.90;;;;;;4984706;28;20050;-71
2022/08/29 05:56:33;;;;;;;18.92;14.27;;;7.90;99.90;;;;;;4969344;28;20050;-71
2022/08/29 05:59:00;;;;;;;15.73;14.18;;;7.90;99.90;;;;;;4996597;28;20058;-71
2022/08/29 06:01:30;;;;;;;16.55;14.93;;;8.10;99.90;;;;;;4988023;28;20085;-70
2022/08/29 06:03:59;;;;;;;16.42;14.73;;;8.20;99.90;;;;;;4969242;28;20131;-72
2022/08/29 06:06:28;;;;;;;16.98;15.02;;;8.40;99.90;;;;;;4980530;28;20057;-71
2022/08/29 06:08:56;;;;;;;16.42;14.90;;;8.60;99.90;;;;;;4981048;28;20061;-71
2022/08/29 06:11:26;;;;;;;15.75;14.25;;;8.70;99.90;;;;;;4977935;28;20461;-71
2022/08/29 06:13:53;;;;;;;16.40;14.73;;;8.90;99.90;;;;;;4962211;28;20121;-70
2022/08/29 06:16:22;;;;;;;17.67;15.93;;;9.10;99.90;;;;;;4974887;28;20116;-71
2022/08/29 06:18:49;;;;;;;21.08;15.68;;;9.20;99.90;;;;;;4985168;28;20328;-71
2022/08/29 06:21:17;;;;;;;17.48;15.93;;;9.30;99.90;;;;;;4980109;28;20372;-71
2022/08/29 06:23:44;;;;;;;17.90;16.10;;;9.50;99.90;;;;;;4967212;28;20050;-71
2022/08/29 06:26:12;;;;;;;16.95;15.27;;;9.70;99.90;;;;;;4965954;28;20101;-71
2022/08/29 06:28:44;;;;;;;17.80;16.02;;;9.80;99.90;;;;;;4960361;28;20058;-70
2022/08/29 06:31:14;;;;;;;17.50;15.77;;;9.90;99.90;;;;;;4969898;28;20092;-70
2022/08/29 06:33:41;;;;;;;19.30;17.17;;;10.10;99.90;;;;;;4982820;28;20038;-71
2022/08/29 06:36:09;;;;;;;18.15;16.33;;;10.30;99.90;;;;;;4976526;28;20528;-70
2022/08/29 06:38:36;;;;;;;18.88;17.25;;;10.50;99.90;;;;;;4970149;28;20050;-70
2022/08/29 06:41:08;;;;;;;19.10;17.17;;;10.70;99.90;;;;;;4981440;28;20074;-70
2022/08/29 06:43:35;;;;;;;20.38;18.38;;;10.80;99.90;;;;;;4962044;28;20132;-70
2022/08/29 06:46:03;;;;;;;19.63;17.70;;;11.00;99.90;;;;;;4979211;28;20613;-71
2022/08/29 06:48:30;;;;;;;19.92;17.92;;;11.20;99.90;;;;;;4980513;28;20557;-71
2022/08/29 06:51:00;;;;;;;20.35;18.45;;;11.50;99.90;;;;;;4977336;28;20050;-71
2022/08/29 06:53:27;;;;;;;21.10;19.10;;;11.80;99.90;;;;;;4965125;28;20440;-71
2022/08/29 06:56:04;;;;;;;22.13;20.35;;;12.10;99.90;;;;;;4983815;28;20141;-71
2022/08/29 06:58:31;;;;;;;23.95;21.33;;;12.30;99.90;;;;;;4947618;28;20413;-71
2022/08/29 07:01:03;;;;;;;24.33;21.98;;;12.60;99.90;;;;;;4985923;28;20038;-70
2022/08/29 07:03:30;;;;;;;24.58;22.45;;;12.80;99.90;;;;;;4967343;28;20046;-71
2022/08/29 07:05:57;;;;;;;23.98;21.88;;;13.00;99.90;;;;;;4989413;28;20815;-71
2022/08/29 07:08:23;;;;;;;24.13;22.10;;;13.30;99.90;;;;;;4981329;28;20773;-71
2022/08/29 07:10:50;;;;;;;24.88;22.48;;;13.50;99.90;;;;;;4985024;28;20271;-71
2022/08/29 07:13:17;;;;;;;26.75;23.85;;;13.70;99.90;;;;;;4945325;28;20046;-71
2022/08/29 07:15:44;;;;;;;26.10;23.98;;;14.00;99.90;;;;;;4979456;28;20501;-71
2022/08/29 07:18:10;;;;;;;26.08;23.77;;;14.40;99.90;;;;;;4980873;28;20048;-72
2022/08/29 07:20:38;;;;;;;26.42;24.27;;;14.70;99.90;;;;;;4994522;28;20531;-71
2022/08/29 07:23:07;;;;;;;27.38;25.05;;;15.00;99.90;;;;;;4978055;28;20061;-71
2022/08/29 07:25:35;;;;;;;26.27;24.00;;;15.10;99.90;;;;;;4981318;28;20161;-71
2022/08/29 07:28:04;;;;;;;26.92;24.60;;;15.50;99.90;;;;;;4961046;28;20055;-71
2022/08/29 07:30:31;;;;;;;27.83;25.50;;;15.90;99.90;;;;;;4985834;28;20065;-71
2022/08/29 07:32:59;;;;;;;29.55;27.05;;;16.40;99.90;;;;;;4977726;28;20101;-71
2022/08/29 07:35:25;;;;;;;27.88;25.77;;;16.60;99.90;;;;;;4983312;28;20057;-71
2022/08/29 07:37:58;;;;;;;28.75;26.27;;;17.00;99.90;;;;;;4980093;28;20042;-71
2022/08/29 07:40:24;;;;;;;29.58;27.13;;;17.10;99.90;;;;;;4978776;28;20126;-71
2022/08/29 07:42:52;;;;;;;30.25;27.67;;;16.90;99.90;;;;;;4987660;28;20344;-71
2022/08/29 07:45:18;;;;;;;29.30;26.60;;;16.90;99.90;;;;;;4976397;28;20276;-71
2022/08/29 07:47:45;;;;;;;29.30;26.90;;;17.00;99.90;;;;;;4957797;28;20283;-72
2022/08/29 07:50:13;;;;;;;29.58;26.98;;;17.20;99.90;;;;;;4962451;28;20046;-71
2022/08/29 07:52:40;;;;;;;29.67;27.35;;;17.30;99.90;;;;;;4978147;28;20042;-71
2022/08/29 07:55:08;;;;;;;28.30;26.20;;;17.50;99.90;;;;;;4957875;28;20149;-72
2022/08/29 07:57:35;;;;;;;28.85;26.55;;;17.50;99.90;;;;;;4994576;28;20121;-72
2022/08/29 08:00:11;;;;;;;29.65;27.20;;;17.80;99.90;;;;;;4962570;28;20055;-72
2022/08/29 08:02:41;;;;;;;30.55;27.77;;;17.90;99.90;;;;;;4981429;28;20229;-71
2022/08/29 08:05:08;;;;;;;30.95;28.27;;;17.90;99.90;;;;;;4971560;28;20045;-70
2022/08/29 08:07:35;;;;;;;29.23;27.00;;;17.80;99.90;;;;;;4986369;28;20129;-72
2022/08/29 08:10:06;;;;;;;30.23;27.77;;;17.90;99.90;;;;;;4971623;28;20110;-71
2022/08/29 08:12:33;;;;;;;29.67;27.13;;;17.90;99.90;;;;;;4947006;28;20038;-72
2022/08/29 08:15:00;;;;;;;28.45;26.23;;;18.00;99.90;;;;;;4985231;28;20296;-71
2022/08/29 08:17:27;;;;;;;30.13;27.33;;;18.20;99.90;;;;;;4975357;28;20046;-70
2022/08/29 08:19:53;;;;;;;27.70;25.50;;;18.20;99.90;;;;;;4974955;28;20085;-71
2022/08/29 08:22:20;;;;;;;28.88;26.77;;;18.40;99.90;;;;;;4971206;28;20048;-71
2022/08/29 08:24:47;;;;;;;29.15;26.98;;;18.40;99.90;;;;;;4950686;28;20137;-71
2022/08/29 08:27:14;;;;;;;28.55;26.27;;;18.30;99.90;;;;;;4952999;28;20105;-71
2022/08/29 08:29:42;;;;;;;29.08;26.25;;;18.30;99.90;;;;;;4974246;28;20054;-72
2022/08/29 08:32:09;;;;;;;28.95;26.75;;;18.30;99.90;;;;;;4973330;28;20051;-71
2022/08/29 08:34:36;;;;;;;28.95;26.85;;;18.30;99.90;;;;;;4957769;28;20137;-71
2022/08/29 08:37:07;;;;;;;27.45;25.30;;;18.30;99.90;;;;;;4971264;28;20101;-71
2022/08/29 08:39:35;;;;;;;28.95;26.75;;;18.50;99.90;;;;;;4954188;28;20056;-71
2022/08/29 08:42:16;;;;;;;28.70;26.67;;;18.60;99.90;;;;;;4974087;28;20039;-71
2022/08/29 08:45:03;;;;;;;27.20;25.08;;;18.50;99.90;;;;;;4983433;28;20331;-70
2022/08/29 08:47:35;;;;;;;29.55;27.17;;;18.70;99.90;;;;;;4973811;28;20630;-72
2022/08/29 08:50:24;;;;;;;29.52;26.90;;;18.80;99.90;;;;;;4957023;28;20137;-72
2022/08/29 08:52:59;;;;;;;29.23;26.90;;;19.00;99.90;;;;;;4972124;28;20563;-72
2022/08/29 08:55:41;;;;;;;28.10;25.95;;;19.30;99.90;;;;;;4975907;28;20054;-72
2022/08/29 08:58:17;;;;;;;27.48;25.55;;;19.40;99.90;;;;;;4985097;28;20054;-70
2022/08/29 09:01:25;;;;;;;29.33;27.17;;;19.30;99.90;;;;;;4975674;28;20117;-71
2022/08/29 09:04:30;;;;;;;28.92;26.48;;;18.50;99.90;;;;;;4968669;28;20046;-72
2022/08/29 09:07:18;;;;;;;28.00;26.00;;;18.70;99.90;;;;;;4970862;23;20037;-71
2022/08/29 09:10:27;;;;;;;28.00;25.95;;;18.30;99.90;;;;;;4995350;28;20540;-74
2022/08/29 09:13:20;;;;;;;28.25;26.15;;;18.20;99.90;;;;;;4971552;28;20117;-72
2022/08/29 09:15:51;;;;;;;27.50;25.70;;;18.50;99.90;;;;;;5008957;28;20206;-73
2022/08/29 09:18:43;;;;;;;27.85;25.45;;;19.20;99.90;;;;;;5010258;28;20184;-73
2022/08/29 09:21:22;;;;;;;28.52;26.38;;;19.30;99.90;;;;;;4973073;28;20084;-73
2022/08/29 09:24:14;;;;;;;29.63;26.65;;;19.40;99.90;;;;;;4998988;28;20049;-73
2022/08/29 09:26:41;;;;;;;29.15;26.70;;;19.40;99.90;;;;;;4987241;28;20071;-74
2022/08/29 09:29:10;;;;;;;28.55;26.65;;;19.30;99.90;;;;;;5002752;28;20123;-72
2022/08/29 09:31:37;;;;;;;28.52;26.42;;;19.80;99.90;;;;;;5001637;28;20500;-74
2022/08/29 09:34:07;;;;;;;28.30;26.15;;;19.60;99.90;;;;;;5001544;28;20045;-73
2022/08/29 09:36:50;;;;;;;29.27;26.73;;;19.20;99.90;;;;;;5000107;28;20069;-73
2022/08/29 09:39:27;;;;;;;27.90;25.45;;;18.50;99.90;;;;;;4997680;28;20080;-73
2022/08/29 09:42:18;;;;;;;28.50;26.42;;;18.60;99.90;;;;;;5008469;28;20130;-73
2022/08/29 09:44:57;;;;;;;29.13;26.70;;;18.70;99.90;;;;;;4983281;28;20073;-73
2022/08/29 09:47:29;;;;;;;27.80;25.67;;;19.20;99.90;;;;;;4978238;28;20045;-73
2022/08/29 09:50:17;;;;;;;27.15;25.08;;;19.60;99.90;;;;;;5002232;28;20049;-73
2022/08/29 09:52:57;;;;;;;28.33;25.90;;;20.00;99.90;;;;;;4977714;28;20061;-73
2022/08/29 09:55:26;;;;;;;28.17;26.10;;;20.30;99.90;;;;;;4961387;28;20054;-73
2022/08/29 09:57:59;;;;;;;28.25;25.95;;;20.50;99.90;;;;;;4985257;28;20053;-73
2022/08/29 10:00:31;;;;;;;28.63;26.83;;;20.60;99.90;;;;;;4987156;28;20512;-73
2022/08/29 10:03:00;;;;;;;29.40;26.95;;;20.30;99.90;;;;;;4973925;28;20092;-74
2022/08/29 10:05:41;;;;;;;29.17;26.95;;;20.10;99.90;;;;;;4982277;28;20258;-73
2022/08/29 10:08:33;;;;;;;29.92;27.75;;;20.50;99.90;;;;;;4996222;28;20129;-73
2022/08/29 10:11:24;;;;;;;27.73;25.73;;;20.70;99.90;;;;;;4995706;28;20050;-73
2022/08/29 10:13:59;;;;;;;28.83;26.75;;;20.80;99.90;;;;;;4983744;28;20585;-74
2022/08/29 10:16:26;;;;;;;28.40;26.17;;;20.80;99.90;;;;;;4998245;28;20049;-73
2022/08/29 10:19:01;;;;;;;29.38;27.35;;;21.10;99.90;;;;;;4978912;28;20057;-73
2022/08/29 10:21:40;;;;;;;29.27;27.15;;;21.40;99.90;;;;;;4986820;28;20519;-73
2022/08/29 10:24:28;;;;;;;28.98;27.17;;;21.30;99.90;;;;;;4995758;28;20049;-73
2022/08/29 10:27:14;;;;;;;29.20;27.17;;;21.40;99.90;;;;;;4998734;28;20467;-74
2022/08/29 10:29:41;;;;;;;29.08;27.02;;;21.80;99.90;;;;;;4991119;28;20274;-74
2022/08/29 10:32:11;;;;;;;29.17;27.05;;;21.80;99.90;;;;;;5002220;28;20097;-73
2022/08/29 10:35:02;;;;;;;29.35;27.00;;;21.80;99.90;;;;;;5004124;28;20103;-73
2022/08/29 10:37:40;;;;;;;29.88;27.77;;;21.90;99.90;;;;;;4998495;28;20447;-73
2022/08/29 10:40:13;;;;;;;28.45;26.55;;;22.10;99.90;;;;;;4981113;28;20101;-74
2022/08/29 10:42:44;;;;;;;29.17;26.92;;;21.90;99.90;;;;;;4977776;28;20136;-73
2022/08/29 10:45:37;;;;;;;28.55;26.38;;;21.60;99.90;;;;;;5002999;28;20119;-72
2022/08/29 10:48:20;;;;;;;28.95;26.77;;;21.20;99.90;;;;;;4958884;28;20057;-72
2022/08/29 10:51:02;;;;;;;28.45;26.42;;;21.10;99.90;;;;;;4988607;28;20140;-73
2022/08/29 10:53:55;;;;;;;30.15;27.73;;;20.90;99.90;;;;;;4960675;28;20389;-73
2022/08/29 10:56:29;;;;;;;27.85;25.85;;;20.60;99.90;;;;;;4987364;28;20057;-72
2022/08/29 10:59:08;;;;;;;30.52;28.38;;;20.80;99.90;;;;;;4979550;28;20354;-72
2022/08/29 11:01:39;;;;;;;29.95;27.95;;;21.00;99.90;;;;;;4969693;28;20536;-73
2022/08/29 11:04:21;;;;;;;29.17;26.95;;;21.40;99.90;;;;;;4982640;28;20042;-73
2022/08/29 11:06:51;;;;;;;28.08;26.20;;;21.90;99.90;;;;;;4989707;28;20071;-73
2022/08/29 11:09:21;;;;;;;29.35;27.25;;;22.20;99.90;;;;;;4985463;28;20252;-73
2022/08/29 11:12:05;;;;;;;28.80;26.77;;;21.50;99.90;;;;;;4980947;28;20594;-73
2022/08/29 11:14:55;;;;;;;29.17;26.90;;;21.30;99.90;;;;;;4983734;28;20084;-72
2022/08/29 11:17:28;;;;;;;28.10;26.13;;;21.60;99.90;;;;;;4983430;28;20540;-73
2022/08/29 11:20:10;;;;;;;28.05;26.05;;;21.50;99.90;;;;;;5012586;28;20321;-73
2022/08/29 11:22:53;;;;;;;28.50;26.00;;;21.80;99.90;;;;;;5000912;28;20048;-73
2022/08/29 11:25:20;;;;;;;30.40;28.30;;;21.90;99.90;;;;;;5005915;28;20050;-72
2022/08/29 11:28:03;;;;;;;29.33;27.23;;;21.90;99.90;;;;;;4991829;28;20049;-73
2022/08/29 11:30:38;;;;;;;30.77;28.42;;;21.10;99.90;;;;;;5001337;28;20057;-73
2022/08/29 11:33:43;;;;;;;31.08;28.73;;;21.60;99.90;;;;;;5001442;28;20066;-73
2022/08/29 11:36:39;;;;;;;27.63;25.58;;;22.20;99.90;;;;;;4966144;28;20112;-73
2022/08/29 11:39:31;;;;;;;27.60;25.48;;;22.80;99.90;;;;;;4978546;28;20140;-73
2022/08/29 11:42:05;;;;;;;27.77;25.88;;;22.80;99.90;;;;;;5001275;28;20115;-73
2022/08/29 11:44:33;;;;;;;27.13;25.33;;;22.70;99.90;;;;;;4998449;28;20045;-72
2022/08/29 11:47:09;;;;;;;29.70;27.48;;;22.10;99.90;;;;;;4987532;28;20331;-72
2022/08/29 11:49:40;;;;;;;28.58;26.55;;;21.70;99.90;;;;;;5010448;28;20482;-73
2022/08/29 11:52:10;;;;;;;27.65;25.77;;;21.80;99.90;;;;;;5001136;28;20111;-72
2022/08/29 11:54:37;;;;;;;28.67;26.80;;;22.40;99.90;;;;;;4967655;28;20101;-72
2022/08/29 11:57:04;;;;;;;30.17;28.10;;;22.30;99.90;;;;;;4972140;28;20042;-73
2022/08/29 11:59:55;;;;;;;28.50;26.50;;;21.00;99.90;;;;;;4982263;28;20049;-72
2022/08/29 12:02:29;;;;;;;28.70;26.60;;;20.30;99.90;;;;;;4980733;28;20126;-72
2022/08/29 12:04:58;;;;;;;28.75;26.65;;;20.40;99.90;;;;;;4975118;28;20050;-73
2022/08/29 12:08:17;;;;;;;28.23;26.23;;;21.00;99.90;;;;;;4994645;28;20042;-73
2022/08/29 12:11:04;;;;;;;27.67;25.58;;;21.60;99.90;;;;;;4977027;28;20452;-72
2022/08/29 12:13:58;;;;;;;27.60;25.65;;;21.70;99.90;;;;;;4996764;28;20081;-74
2022/08/29 12:16:45;;;;;;;26.45;24.83;;;22.00;99.90;;;;;;4985598;28;20037;-73
2022/08/29 12:19:49;;;;;;;27.30;25.35;;;22.30;99.90;;;;;;4978361;28;20339;-73
2022/08/29 12:22:47;;;;;;;26.85;24.95;;;21.60;99.90;;;;;;4978233;28;20128;-73
2022/08/29 12:25:30;;;;;;;28.20;25.80;;;21.90;99.90;;;;;;4993456;28;20347;-74
2022/08/29 12:28:29;;;;;;;27.50;25.55;;;21.90;99.90;;;;;;4997124;28;20080;-73
2022/08/29 12:30:56;;;;;;;27.35;25.45;;;21.40;99.90;;;;;;4980499;28;20034;-74
2022/08/29 12:33:51;;;;;;;26.67;24.88;;;21.10;99.90;;;;;;4994788;28;20147;-73
2022/08/29 12:36:24;;;;;;;26.33;24.30;;;21.40;99.90;;;;;;4997469;28;20058;-73
2022/08/29 12:39:02;;;;;;;27.13;25.23;;;21.90;99.90;;;;;;5001241;28;20153;-73
2022/08/29 12:41:36;;;;;;;27.85;25.88;;;22.20;99.90;;;;;;4976731;28;20123;-74
2022/08/29 12:44:10;;;;;;;26.77;24.98;;;22.90;99.90;;;;;;4996665;28;20487;-73
2022/08/29 12:46:41;;;;;;;25.98;24.23;;;22.90;99.90;;;;;;4984545;28;20068;-73
2022/08/29 12:49:20;;;;;;;26.85;24.75;;;23.00;99.90;;;;;;4974832;28;20763;-73
2022/08/29 12:51:59;;;;;;;25.45;23.73;;;23.00;99.90;;;;;;4989149;28;21257;-75
2022/08/29 12:54:38;;;;;;;24.58;22.90;;;23.10;99.90;;;;;;4965763;28;20129;-74
2022/08/29 12:57:08;;;;;;;25.60;23.98;;;23.20;99.90;;;;;;4976485;28;20050;-74
2022/08/29 12:59:34;;;;;;;26.55;24.63;;;22.70;99.90;;;;;;4994604;28;20049;-74
2022/08/29 13:02:01;;;;;;;26.13;24.52;;;22.50;99.90;;;;;;4984333;28;20045;-74